Time;durP1;ratioP1;P1;durP2;ratioP2;P2;SDS_P1;SDS_P2;PMS_P1;PMS_P2;Temp;Humidity;BMP_temperature;BMP_pressure;BME280_temperature;BME280_humidity;BME280_pressure;Samples;Min_cycle;Max_cycle;Signal;HPM_P1;HPM_P2
2023/12/23 00:01:39;;;;;;;13.25;3.00;;;5.80;99.90;;;;;;4997872;28;20038;-62
2023/12/23 00:04:05;;;;;;;10.85;2.83;;;5.70;99.90;;;;;;5000466;28;20073;-62
2023/12/23 00:06:30;;;;;;;8.15;2.58;;;5.70;99.90;;;;;;4997598;28;20128;-62
2023/12/23 00:08:56;;;;;;;12.57;2.58;;;5.70;99.90;;;;;;4998092;28;20061;-62
2023/12/23 00:11:21;;;;;;;18.45;3.63;;;5.70;99.90;;;;;;4997252;28;20081;-62
2023/12/23 00:13:47;;;;;;;10.57;2.90;;;5.80;99.90;;;;;;4998283;28;20037;-62
2023/12/23 00:16:13;;;;;;;9.15;2.97;;;5.90;99.90;;;;;;5034966;28;20033;-62
2023/12/23 00:18:38;;;;;;;16.05;3.20;;;5.90;99.90;;;;;;5016479;28;20040;-61
2023/12/23 00:21:04;;;;;;;17.45;2.63;;;6.00;99.90;;;;;;5003250;28;20093;-62
2023/12/23 00:23:30;;;;;;;9.02;2.35;;;6.10;99.90;;;;;;5021170;28;20139;-62
2023/12/23 00:25:55;;;;;;;8.93;2.22;;;6.20;99.90;;;;;;5034770;28;20517;-62
2023/12/23 00:28:22;;;;;;;12.10;2.35;;;6.20;99.90;;;;;;5001008;28;20038;-62
2023/12/23 00:30:47;;;;;;;11.75;2.30;;;6.20;99.90;;;;;;4999876;28;20038;-62
2023/12/23 00:33:13;;;;;;;12.68;3.08;;;6.20;99.90;;;;;;5016367;28;20037;-62
2023/12/23 00:35:39;;;;;;;16.95;3.22;;;6.20;99.90;;;;;;5016939;28;20107;-62
2023/12/23 00:38:04;;;;;;;8.32;2.38;;;6.20;99.90;;;;;;5016350;28;20398;-61
2023/12/23 00:40:30;;;;;;;17.67;2.70;;;6.30;99.90;;;;;;5016726;28;20457;-62
2023/12/23 00:42:56;;;;;;;7.93;2.50;;;6.30;99.90;;;;;;5017338;28;20046;-62
2023/12/23 00:45:22;;;;;;;8.20;3.50;;;6.20;99.90;;;;;;5002917;28;20042;-62
2023/12/23 00:47:47;;;;;;;13.43;3.25;;;6.30;99.90;;;;;;4996971;28;20088;-61
2023/12/23 00:50:13;;;;;;;11.43;2.42;;;6.20;99.90;;;;;;4996429;28;20042;-62
2023/12/23 00:52:38;;;;;;;9.57;2.63;;;6.20;99.90;;;;;;4979906;28;20380;-62
2023/12/23 00:55:04;;;;;;;13.85;2.38;;;6.20;99.90;;;;;;4997292;28;20046;-62
2023/12/23 00:57:30;;;;;;;9.82;2.35;;;6.20;99.90;;;;;;5014309;28;20049;-62
2023/12/23 00:59:56;;;;;;;8.88;1.80;;;6.20;99.90;;;;;;4996248;28;20103;-61
2023/12/23 01:02:21;;;;;;;8.40;2.60;;;6.30;99.90;;;;;;4994420;28;20053;-59
2023/12/23 01:04:47;;;;;;;10.75;2.60;;;6.30;99.90;;;;;;5015980;28;20049;-59
2023/12/23 01:07:12;;;;;;;8.25;2.10;;;6.30;99.90;;;;;;5015547;28;20044;-59
2023/12/23 01:09:38;;;;;;;10.38;2.67;;;6.40;99.90;;;;;;4999999;28;20049;-59
2023/12/23 01:12:05;;;;;;;11.73;3.22;;;6.40;99.90;;;;;;5016541;28;20128;-59
2023/12/23 01:14:30;;;;;;;10.60;2.45;;;6.40;99.90;;;;;;4998870;28;20156;-59
2023/12/23 01:16:56;;;;;;;8.40;2.50;;;6.30;99.90;;;;;;5016851;28;20530;-59
2023/12/23 01:19:22;;;;;;;7.80;2.45;;;6.40;99.90;;;;;;5015880;28;20133;-59
2023/12/23 01:21:47;;;;;;;12.65;2.50;;;6.40;99.90;;;;;;5015536;28;20119;-59
2023/12/23 01:24:13;;;;;;;7.53;2.53;;;6.40;99.90;;;;;;5016364;28;20479;-59
2023/12/23 01:26:39;;;;;;;11.10;2.30;;;6.40;99.90;;;;;;4999871;28;20116;-59
2023/12/23 01:29:04;;;;;;;11.55;2.75;;;6.40;99.90;;;;;;5032963;28;20045;-59
2023/12/23 01:31:30;;;;;;;13.70;2.33;;;6.40;99.90;;;;;;5016000;28;20083;-59
2023/12/23 01:33:56;;;;;;;12.13;3.10;;;6.40;99.90;;;;;;5015117;28;20437;-60
2023/12/23 01:36:21;;;;;;;9.93;2.45;;;6.30;99.90;;;;;;5032306;28;20108;-60
2023/12/23 01:38:47;;;;;;;12.60;3.38;;;6.30;99.90;;;;;;5033363;28;20478;-59
2023/12/23 01:41:13;;;;;;;14.38;2.78;;;6.30;99.90;;;;;;5032617;28;20771;-59
2023/12/23 01:43:38;;;;;;;10.23;3.60;;;6.30;99.90;;;;;;5015404;28;20535;-60
2023/12/23 01:46:04;;;;;;;14.20;3.40;;;6.30;99.90;;;;;;5032372;28;20033;-60
2023/12/23 01:48:37;;;;;;;10.25;2.78;;;6.30;99.90;;;;;;5032214;28;20029;-59
2023/12/23 01:51:03;;;;;;;10.85;3.05;;;6.30;99.90;;;;;;5016112;28;20526;-60
2023/12/23 01:53:31;;;;;;;13.82;2.60;;;6.30;99.90;;;;;;5033534;28;20047;-62
2023/12/23 01:55:57;;;;;;;13.77;3.15;;;6.30;99.90;;;;;;5015015;28;20107;-62
2023/12/23 01:58:23;;;;;;;10.55;2.13;;;6.30;99.90;;;;;;5015410;28;20049;-62
2023/12/23 02:00:49;;;;;;;12.05;1.75;;;6.30;99.90;;;;;;5015410;28;20042;-62
2023/12/23 02:03:15;;;;;;;9.73;2.78;;;6.30;99.90;;;;;;5001196;28;20085;-62
2023/12/23 02:05:40;;;;;;;10.25;2.10;;;6.30;99.90;;;;;;4995702;28;20050;-62
2023/12/23 02:08:06;;;;;;;9.75;1.90;;;6.30;99.90;;;;;;4995892;28;20061;-62
2023/12/23 02:10:33;;;;;;;8.15;1.70;;;6.20;99.90;;;;;;5003983;28;20041;-62
2023/12/23 02:13:10;;;;;;;13.05;2.47;;;6.20;99.90;;;;;;5012054;28;20041;-62
2023/12/23 02:15:37;;;;;;;8.55;2.60;;;6.20;99.90;;;;;;5012665;28;20100;-62
2023/12/23 02:18:03;;;;;;;9.60;2.10;;;6.10;99.90;;;;;;4995489;28;20125;-62
2023/12/23 02:20:29;;;;;;;12.98;2.05;;;6.10;99.90;;;;;;4995271;28;20042;-62
2023/12/23 02:22:54;;;;;;;7.28;2.20;;;6.10;99.90;;;;;;4995798;28;20069;-62
2023/12/23 02:25:21;;;;;;;8.77;2.08;;;6.00;99.90;;;;;;5010769;28;20037;-59
2023/12/23 02:27:52;;;;;;;6.90;2.35;;;6.00;99.90;;;;;;5014969;28;20139;-60
2023/12/23 02:30:18;;;;;;;9.48;1.98;;;6.00;99.90;;;;;;5014234;28;20120;-60
2023/12/23 02:32:45;;;;;;;7.85;1.33;;;5.90;99.90;;;;;;5031563;28;20413;-59
2023/12/23 02:35:14;;;;;;;9.13;2.17;;;5.90;99.90;;;;;;4995957;28;20081;-59
2023/12/23 02:37:41;;;;;;;9.75;2.03;;;5.90;99.90;;;;;;4978084;28;20046;-60
2023/12/23 02:40:08;;;;;;;8.32;1.42;;;5.90;99.90;;;;;;4995288;28;20045;-59
2023/12/23 02:42:33;;;;;;;10.25;1.88;;;5.80;99.90;;;;;;5011687;28;20559;-60
2023/12/23 02:44:59;;;;;;;7.55;1.98;;;5.80;99.90;;;;;;4994438;28;20128;-60
2023/12/23 02:47:25;;;;;;;4.93;1.33;;;5.80;99.90;;;;;;5026487;28;20120;-59
2023/12/23 02:49:50;;;;;;;9.98;1.90;;;5.80;99.90;;;;;;5032229;28;20046;-60
2023/12/23 02:52:16;;;;;;;8.23;1.67;;;5.70;99.90;;;;;;5013711;28;20041;-60
2023/12/23 02:54:42;;;;;;;6.68;1.83;;;5.70;99.90;;;;;;5014226;28;20045;-60
2023/12/23 02:57:07;;;;;;;5.25;1.45;;;5.70;99.90;;;;;;5032068;28;20379;-59
2023/12/23 02:59:33;;;;;;;8.82;2.45;;;5.70;99.90;;;;;;5013689;28;20375;-59
2023/12/23 03:01:58;;;;;;;6.30;1.52;;;5.70;99.90;;;;;;5016357;28;20120;-60
2023/12/23 03:04:24;;;;;;;5.28;1.30;;;5.70;99.90;;;;;;5034039;28;20107;-60
2023/12/23 03:06:50;;;;;;;8.57;2.10;;;5.60;99.90;;;;;;5016899;28;20053;-60
2023/12/23 03:09:15;;;;;;;5.75;1.45;;;5.60;99.90;;;;;;5050847;28;20402;-60
2023/12/23 03:11:41;;;;;;;6.18;1.40;;;5.60;99.90;;;;;;5051663;28;20037;-59
2023/12/23 03:14:07;;;;;;;12.38;2.72;;;5.50;99.90;;;;;;5049745;28;20037;-60
2023/12/23 03:16:35;;;;;;;13.45;6.43;;;5.60;99.90;;;;;;5046819;28;20161;-59
2023/12/23 03:19:02;;;;;;;13.98;4.68;;;5.50;99.90;;;;;;5052265;28;20037;-60
2023/12/23 03:21:28;;;;;;;8.10;3.10;;;5.50;99.90;;;;;;5033218;28;20444;-60
2023/12/23 03:23:54;;;;;;;8.60;3.30;;;5.50;99.90;;;;;;5049910;28;20044;-59
2023/12/23 03:26:20;;;;;;;18.67;11.48;;;5.50;99.90;;;;;;5033698;28;20405;-60
2023/12/23 03:28:45;;;;;;;15.85;9.80;;;5.50;99.90;;;;;;5049849;28;20045;-59
2023/12/23 03:31:11;;;;;;;17.42;8.40;;;5.50;99.90;;;;;;5050381;28;20043;-60
2023/12/23 03:33:37;;;;;;;19.25;8.25;;;5.50;99.90;;;;;;5041464;28;20076;-59
2023/12/23 03:36:02;;;;;;;12.13;5.53;;;5.50;99.90;;;;;;4997913;28;20060;-59
2023/12/23 03:38:28;;;;;;;10.25;3.85;;;5.50;99.90;;;;;;5014088;28;20092;-60
2023/12/23 03:40:54;;;;;;;12.75;3.45;;;5.50;99.90;;;;;;5013216;28;20049;-59
2023/12/23 03:43:19;;;;;;;11.70;3.50;;;5.50;99.90;;;;;;5013579;28;20051;-59
2023/12/23 03:45:45;;;;;;;5.38;2.08;;;5.50;99.90;;;;;;4997938;28;20045;-59
2023/12/23 03:48:11;;;;;;;6.63;2.78;;;5.50;99.90;;;;;;5013485;28;20030;-59
2023/12/23 03:50:36;;;;;;;7.20;2.13;;;5.50;99.90;;;;;;5013880;28;20129;-59
2023/12/23 03:53:02;;;;;;;6.57;1.42;;;5.50;99.90;;;;;;4998071;28;20041;-59
2023/12/23 03:55:32;;;;;;;9.27;1.83;;;5.50;99.90;;;;;;5013157;28;20525;-59
2023/12/23 03:57:59;;;;;;;5.63;2.42;;;5.50;99.90;;;;;;5014358;28;20055;-59
2023/12/23 04:00:26;;;;;;;7.25;1.80;;;5.50;99.90;;;;;;5022996;28;20045;-59
2023/12/23 04:02:55;;;;;;;4.15;1.15;;;5.50;99.90;;;;;;5015336;28;20085;-59
2023/12/23 04:05:21;;;;;;;7.68;1.20;;;5.50;99.90;;;;;;5033486;28;20044;-59
2023/12/23 04:07:50;;;;;;;5.05;1.35;;;5.50;99.90;;;;;;5033547;28;20037;-59
2023/12/23 04:10:17;;;;;;;7.78;1.75;;;5.60;99.90;;;;;;5032760;28;20362;-59
2023/12/23 04:12:43;;;;;;;4.30;1.20;;;5.60;99.90;;;;;;5017228;28;20052;-59
2023/12/23 04:15:09;;;;;;;7.95;2.13;;;5.50;99.90;;;;;;5016869;28;20049;-59
2023/12/23 04:17:35;;;;;;;9.10;1.90;;;5.60;99.90;;;;;;5012817;28;20048;-59
2023/12/23 04:20:01;;;;;;;7.75;2.45;;;5.60;99.90;;;;;;5013967;28;20049;-59
2023/12/23 04:22:26;;;;;;;6.93;1.40;;;5.60;99.90;;;;;;5030091;28;20398;-58
2023/12/23 04:24:53;;;;;;;5.28;1.58;;;5.60;99.90;;;;;;5029312;28;20099;-59
2023/12/23 04:27:19;;;;;;;6.80;1.52;;;5.60;99.90;;;;;;5017200;28;20041;-59
2023/12/23 04:29:44;;;;;;;5.50;1.63;;;5.60;99.90;;;;;;5016371;28;20121;-59
2023/12/23 04:32:10;;;;;;;4.15;1.25;;;5.60;99.90;;;;;;5033822;28;20128;-59
2023/12/23 04:34:39;;;;;;;4.43;1.20;;;5.60;99.90;;;;;;5033190;28;20041;-59
2023/12/23 04:37:05;;;;;;;7.88;1.17;;;5.60;99.90;;;;;;5036463;28;20382;-59
2023/12/23 04:39:30;;;;;;;8.43;1.45;;;5.70;99.90;;;;;;5054210;28;20049;-59
2023/12/23 04:41:56;;;;;;;6.18;1.27;;;5.60;99.90;;;;;;5053577;28;20398;-59
2023/12/23 04:44:22;;;;;;;7.63;2.03;;;5.60;99.90;;;;;;5019176;28;20386;-59
2023/12/23 04:46:49;;;;;;;4.90;1.40;;;5.60;99.90;;;;;;5036507;28;20044;-59
2023/12/23 04:49:15;;;;;;;4.97;1.02;;;5.60;99.90;;;;;;5036483;28;20525;-59
2023/12/23 04:51:43;;;;;;;6.43;1.15;;;5.60;99.90;;;;;;5052151;28;20044;-59
2023/12/23 04:54:10;;;;;;;8.32;1.63;;;5.60;99.90;;;;;;5019808;28;20040;-58
2023/12/23 04:56:36;;;;;;;8.60;1.60;;;5.60;99.90;;;;;;5036594;28;20047;-59
2023/12/23 04:59:02;;;;;;;4.50;1.70;;;5.60;99.90;;;;;;5052327;28;20033;-58
2023/12/23 05:01:27;;;;;;;7.25;1.63;;;5.60;99.90;;;;;;5052954;28;20410;-59
2023/12/23 05:03:53;;;;;;;4.95;1.70;;;5.60;99.90;;;;;;5034310;28;20049;-58
2023/12/23 05:06:19;;;;;;;5.95;1.83;;;5.60;99.90;;;;;;5033157;28;20072;-59
2023/12/23 05:08:44;;;;;;;4.32;1.00;;;5.60;99.90;;;;;;5016370;28;20037;-59
2023/12/23 05:11:10;;;;;;;5.50;1.52;;;5.60;99.90;;;;;;5034201;28;20041;-59
2023/12/23 05:13:36;;;;;;;17.90;5.32;;;5.60;99.90;;;;;;5019470;28;20037;-59
2023/12/23 05:16:02;;;;;;;12.57;2.65;;;5.60;99.90;;;;;;5036208;28;20482;-59
2023/12/23 05:18:28;;;;;;;6.93;2.17;;;5.60;99.90;;;;;;5035709;28;20097;-59
2023/12/23 05:20:53;;;;;;;10.77;2.97;;;5.60;99.90;;;;;;5051634;28;20053;-58
2023/12/23 05:23:19;;;;;;;7.47;2.55;;;5.60;99.90;;;;;;5052298;28;20045;-59
2023/12/23 05:25:45;;;;;;;8.98;2.13;;;5.60;99.90;;;;;;5052327;28;20051;-59
2023/12/23 05:28:11;;;;;;;7.68;2.45;;;5.60;99.90;;;;;;5035406;28;20037;-59
2023/12/23 05:30:37;;;;;;;7.80;2.17;;;5.60;99.90;;;;;;5035893;28;20505;-59
2023/12/23 05:33:02;;;;;;;6.60;2.00;;;5.60;99.90;;;;;;5035020;28;20517;-59
2023/12/23 05:35:28;;;;;;;5.75;2.00;;;5.60;99.90;;;;;;5019220;28;20048;-59
2023/12/23 05:37:54;;;;;;;6.63;2.45;;;5.60;99.90;;;;;;5052032;28;20128;-59
2023/12/23 05:40:19;;;;;;;5.93;2.15;;;5.60;99.90;;;;;;5052465;28;20048;-59
2023/12/23 05:42:45;;;;;;;5.72;2.30;;;5.60;99.90;;;;;;5053476;28;20047;-59
2023/12/23 05:45:11;;;;;;;5.20;2.63;;;5.60;99.90;;;;;;5033658;28;20072;-59
2023/12/23 05:47:37;;;;;;;8.63;1.60;;;5.60;99.90;;;;;;5052581;28;20431;-59
2023/12/23 05:50:04;;;;;;;6.07;3.03;;;5.60;99.90;;;;;;5035237;28;20072;-59
2023/12/23 05:52:29;;;;;;;6.18;2.58;;;5.60;99.90;;;;;;5035243;28;20083;-59
2023/12/23 05:54:56;;;;;;;8.82;4.05;;;5.60;99.90;;;;;;5033040;28;20076;-59
2023/12/23 05:57:21;;;;;;;6.47;3.08;;;5.60;99.90;;;;;;5033100;28;20037;-59
2023/12/23 05:59:47;;;;;;;3.55;1.38;;;5.60;99.90;;;;;;5033020;28;20556;-59
2023/12/23 06:02:13;;;;;;;4.85;1.42;;;5.50;99.90;;;;;;5014274;28;20050;-59
2023/12/23 06:04:38;;;;;;;19.67;13.38;;;5.50;99.90;;;;;;5031590;28;20048;-59
2023/12/23 06:07:04;;;;;;;17.05;14.68;;;5.50;99.90;;;;;;5052015;28;20055;-59
2023/12/23 06:09:30;;;;;;;13.15;7.38;;;5.50;99.90;;;;;;5051823;28;20032;-59
2023/12/23 06:11:55;;;;;;;10.10;6.95;;;5.50;99.90;;;;;;5051882;28;20045;-59
2023/12/23 06:14:21;;;;;;;6.53;2.65;;;5.50;99.90;;;;;;5034906;28;20045;-59
2023/12/23 06:16:47;;;;;;;5.65;1.88;;;5.50;99.90;;;;;;5034225;28;20037;-59
2023/12/23 06:19:12;;;;;;;3.70;1.67;;;5.50;99.90;;;;;;5050598;28;20489;-59
2023/12/23 06:21:45;;;;;;;5.25;1.80;;;5.50;99.90;;;;;;5034911;28;20045;-59
2023/12/23 06:24:13;;;;;;;3.95;1.52;;;5.50;99.90;;;;;;5017428;28;20047;-59
2023/12/23 06:26:39;;;;;;;2.97;1.10;;;5.50;99.90;;;;;;5034878;28;20041;-59
2023/12/23 06:29:05;;;;;;;2.00;1.05;;;5.50;99.90;;;;;;5035222;28;20094;-59
2023/12/23 06:31:31;;;;;;;4.68;2.60;;;5.50;99.90;;;;;;5033471;28;20048;-59
2023/12/23 06:33:57;;;;;;;7.80;5.38;;;5.50;99.90;;;;;;5008572;28;20104;-59
2023/12/23 06:36:23;;;;;;;5.93;4.45;;;5.50;99.90;;;;;;5027583;28;20091;-59
2023/12/23 06:38:48;;;;;;;9.32;6.68;;;5.50;99.90;;;;;;5050904;28;20047;-59
2023/12/23 06:41:14;;;;;;;6.00;4.55;;;5.50;99.90;;;;;;5051045;28;20072;-59
2023/12/23 06:43:39;;;;;;;6.88;2.38;;;5.50;99.90;;;;;;5050109;28;20052;-59
2023/12/23 06:46:05;;;;;;;3.97;1.83;;;5.50;99.90;;;;;;5051127;28;20486;-59
2023/12/23 06:48:31;;;;;;;2.83;1.10;;;5.40;99.90;;;;;;5046723;28;20033;-59
2023/12/23 06:50:56;;;;;;;4.55;2.45;;;5.40;99.90;;;;;;5051702;28;20452;-59
2023/12/23 06:53:22;;;;;;;6.78;4.22;;;5.40;99.90;;;;;;5050659;28;20128;-59
2023/12/23 06:55:48;;;;;;;4.50;2.90;;;5.40;99.90;;;;;;5050685;28;20048;-59
2023/12/23 06:58:14;;;;;;;2.20;0.82;;;5.40;99.90;;;;;;5051085;28;20044;-59
2023/12/23 07:00:39;;;;;;;7.28;4.47;;;5.40;99.90;;;;;;5017669;28;20044;-59
2023/12/23 07:03:06;;;;;;;4.22;1.60;;;5.40;99.90;;;;;;5052004;28;20490;-59
2023/12/23 07:05:32;;;;;;;6.38;1.52;;;5.40;99.90;;;;;;5033302;28;20087;-58
2023/12/23 07:07:57;;;;;;;3.30;1.00;;;5.40;99.90;;;;;;5052214;28;20099;-59
2023/12/23 07:10:23;;;;;;;4.20;1.13;;;5.40;99.90;;;;;;5051976;28;20044;-59
2023/12/23 07:12:49;;;;;;;5.05;0.85;;;5.40;99.90;;;;;;5033536;28;20044;-59
2023/12/23 07:15:14;;;;;;;3.88;0.60;;;5.30;99.90;;;;;;5050528;28;20505;-59
2023/12/23 07:17:40;;;;;;;3.72;0.90;;;5.30;99.90;;;;;;5013155;28;20506;-59
2023/12/23 07:20:08;;;;;;;2.80;1.15;;;5.20;99.90;;;;;;5012182;28;20076;-59
2023/12/23 07:22:34;;;;;;;2.45;0.68;;;5.20;99.90;;;;;;5043801;28;20052;-60
2023/12/23 07:24:59;;;;;;;2.53;0.70;;;5.20;99.90;;;;;;5034399;28;20045;-59
2023/12/23 07:27:25;;;;;;;4.93;2.92;;;5.10;99.90;;;;;;5032775;28;20036;-59
2023/12/23 07:29:51;;;;;;;10.10;8.63;;;5.20;99.90;;;;;;5032916;28;20072;-59
2023/12/23 07:32:16;;;;;;;6.97;4.32;;;5.20;99.90;;;;;;5034049;28;20138;-59
2023/12/23 07:34:42;;;;;;;2.67;1.00;;;5.20;99.90;;;;;;5033041;28;20512;-59
2023/12/23 07:37:08;;;;;;;3.20;1.10;;;5.20;99.90;;;;;;5034207;28;20122;-59
2023/12/23 07:39:34;;;;;;;8.77;3.97;;;5.20;99.90;;;;;;5032558;28;20071;-59
2023/12/23 07:42:00;;;;;;;5.90;3.72;;;5.20;99.90;;;;;;5050478;28;20041;-59
2023/12/23 07:44:26;;;;;;;13.48;12.18;;;5.20;99.90;;;;;;5013072;28;20045;-59
2023/12/23 07:46:51;;;;;;;8.32;6.40;;;5.20;99.90;;;;;;5013020;28;20115;-59
2023/12/23 07:49:17;;;;;;;3.50;1.55;;;5.20;99.90;;;;;;5015187;28;20045;-59
2023/12/23 07:51:43;;;;;;;3.75;0.80;;;5.20;99.90;;;;;;5030444;28;20536;-59
2023/12/23 07:54:08;;;;;;;3.78;1.23;;;5.20;99.90;;;;;;5029635;28;20054;-60
2023/12/23 07:56:34;;;;;;;3.13;0.70;;;5.20;99.90;;;;;;4999708;28;20041;-59
2023/12/23 07:59:00;;;;;;;5.43;1.10;;;5.20;99.90;;;;;;5014342;28;20064;-59
2023/12/23 08:01:25;;;;;;;5.43;1.63;;;5.20;99.90;;;;;;5024354;28;20076;-58
2023/12/23 08:03:51;;;;;;;3.33;1.13;;;5.20;99.90;;;;;;5019400;28;20332;-59
2023/12/23 08:06:18;;;;;;;6.10;2.60;;;5.20;99.90;;;;;;5032462;28;20482;-59
2023/12/23 08:08:44;;;;;;;5.47;1.85;;;5.20;99.90;;;;;;5013815;28;20124;-59
2023/12/23 08:11:10;;;;;;;5.15;2.10;;;5.20;99.90;;;;;;4998379;28;20053;-59
2023/12/23 08:13:36;;;;;;;6.85;3.53;;;5.20;99.90;;;;;;4997237;28;20506;-59
2023/12/23 08:16:02;;;;;;;7.57;3.40;;;5.20;99.90;;;;;;5013945;28;20095;-59
2023/12/23 08:18:29;;;;;;;4.10;1.92;;;5.20;99.90;;;;;;5028765;28;20049;-59
2023/12/23 08:20:55;;;;;;;3.92;1.52;;;5.20;99.90;;;;;;5034120;28;20523;-59
2023/12/23 08:23:20;;;;;;;3.38;1.10;;;5.30;99.90;;;;;;5048067;28;20041;-59
2023/12/23 08:25:47;;;;;;;4.53;1.00;;;5.30;99.90;;;;;;5034250;28;20487;-59
2023/12/23 08:28:13;;;;;;;3.50;1.10;;;5.30;99.90;;;;;;5033555;28;20513;-59
2023/12/23 08:30:39;;;;;;;4.93;1.23;;;5.30;99.90;;;;;;5016722;28;20120;-59
2023/12/23 08:33:05;;;;;;;3.25;1.38;;;5.30;99.90;;;;;;5033649;28;20059;-59
2023/12/23 08:35:31;;;;;;;2.90;1.10;;;5.40;99.90;;;;;;5050717;28;20394;-59
2023/12/23 08:37:58;;;;;;;7.00;2.33;;;5.40;99.90;;;;;;5016510;28;20147;-59
2023/12/23 08:40:24;;;;;;;5.03;2.10;;;5.30;99.90;;;;;;5033837;28;20044;-59
2023/12/23 08:42:50;;;;;;;3.67;1.60;;;5.30;99.90;;;;;;5050151;28;20037;-59
2023/12/23 08:45:17;;;;;;;4.80;1.58;;;5.40;99.90;;;;;;5051639;28;20402;-59
2023/12/23 08:47:43;;;;;;;5.47;2.25;;;5.40;99.90;;;;;;5033733;28;20052;-59
2023/12/23 08:50:09;;;;;;;6.30;2.78;;;5.40;99.90;;;;;;5050679;28;20425;-59
2023/12/23 08:52:35;;;;;;;7.82;2.30;;;5.40;99.90;;;;;;5017493;28;20045;-59
2023/12/23 08:55:01;;;;;;;3.88;1.40;;;5.40;99.90;;;;;;5019154;28;20505;-59
2023/12/23 08:57:27;;;;;;;3.85;1.65;;;5.40;99.90;;;;;;5013094;28;20083;-59
2023/12/23 08:59:54;;;;;;;3.88;1.70;;;5.40;99.90;;;;;;5019922;28;20063;-59
2023/12/23 09:02:21;;;;;;;4.05;1.73;;;5.40;99.90;;;;;;5025266;28;20060;-59
2023/12/23 09:04:47;;;;;;;4.32;1.70;;;5.40;99.90;;;;;;5011902;28;20041;-59
2023/12/23 09:07:14;;;;;;;3.40;1.40;;;5.40;99.90;;;;;;5015062;28;20052;-58
2023/12/23 09:09:41;;;;;;;3.35;1.35;;;5.50;99.90;;;;;;5013998;28;20068;-59
2023/12/23 09:12:07;;;;;;;4.53;1.63;;;5.50;99.90;;;;;;4996011;28;20123;-59
2023/12/23 09:14:33;;;;;;;4.13;1.70;;;5.50;99.90;;;;;;4997252;28;20049;-59
2023/12/23 09:16:58;;;;;;;3.90;1.52;;;5.50;99.90;;;;;;5030678;28;20053;-59
2023/12/23 09:19:24;;;;;;;4.50;1.70;;;5.50;99.90;;;;;;5031139;28;20033;-59
2023/12/23 09:21:50;;;;;;;3.95;1.63;;;5.50;99.90;;;;;;5050448;28;20123;-59
2023/12/23 09:24:16;;;;;;;3.40;1.25;;;5.60;99.90;;;;;;5033101;28;20175;-59
2023/12/23 09:26:42;;;;;;;4.25;1.98;;;5.50;99.90;;;;;;5049260;28;20806;-59
2023/12/23 09:29:08;;;;;;;5.65;2.55;;;5.50;99.90;;;;;;5032717;28;20537;-59
2023/12/23 09:31:34;;;;;;;5.88;2.40;;;5.60;99.90;;;;;;5050948;28;20440;-59
2023/12/23 09:34:00;;;;;;;4.53;1.98;;;5.50;99.90;;;;;;5016807;28;20052;-59
2023/12/23 09:36:27;;;;;;;5.78;2.03;;;5.50;99.90;;;;;;5032618;28;20051;-59
2023/12/23 09:38:53;;;;;;;10.32;4.63;;;5.60;99.90;;;;;;5032867;28;20052;-59
2023/12/23 09:41:18;;;;;;;18.80;6.68;;;5.60;99.90;;;;;;5031709;28;20045;-59
2023/12/23 09:43:44;;;;;;;11.93;2.63;;;5.60;99.90;;;;;;5048779;28;20072;-59
2023/12/23 09:46:12;;;;;;;39.42;14.30;;;5.50;99.90;;;;;;5047739;28;20033;-59
2023/12/23 09:48:38;;;;;;;12.27;4.50;;;5.50;99.90;;;;;;5050175;28;20482;-59
2023/12/23 09:51:04;;;;;;;87.53;28.10;;;5.60;99.90;;;;;;5032050;28;20045;-60
2023/12/23 09:53:36;;;;;;;107.35;35.35;;;5.50;99.90;;;;;;5048502;28;20130;-59
2023/12/23 09:56:01;;;;;;;36.92;11.65;;;5.50;99.90;;;;;;5026209;28;20111;-59
2023/12/23 09:58:27;;;;;;;22.00;4.95;;;5.50;99.90;;;;;;5040061;28;20037;-59
2023/12/23 10:00:53;;;;;;;9.75;3.13;;;5.50;99.90;;;;;;5024562;28;20045;-59
2023/12/23 10:03:22;;;;;;;40.65;16.08;;;5.50;99.90;;;;;;5012398;28;20521;-59
2023/12/23 10:05:49;;;;;;;56.38;22.33;;;5.50;99.90;;;;;;5030277;28;20045;-59
2023/12/23 10:08:14;;;;;;;56.65;17.67;;;5.50;99.90;;;;;;5011704;28;20049;-60
2023/12/23 10:10:40;;;;;;;23.13;10.05;;;5.50;99.90;;;;;;4999184;28;20103;-59
2023/12/23 10:13:05;;;;;;;38.13;15.45;;;5.50;99.90;;;;;;5015117;28;20063;-59
2023/12/23 10:15:32;;;;;;;11.38;4.40;;;5.60;99.90;;;;;;5031128;28;20497;-60
2023/12/23 10:18:03;;;;;;;7.25;3.65;;;5.60;99.90;;;;;;5048786;28;20048;-60
2023/12/23 10:20:28;;;;;;;7.45;3.63;;;5.70;99.90;;;;;;5047878;28;20041;-60
2023/12/23 10:22:54;;;;;;;6.15;3.10;;;5.80;99.90;;;;;;5048408;28;20041;-60
2023/12/23 10:25:20;;;;;;;7.15;5.55;;;5.80;99.90;;;;;;5031599;28;20111;-60
2023/12/23 10:27:51;;;;;;;9.23;6.05;;;5.80;99.90;;;;;;5029961;28;20045;-59
2023/12/23 10:30:18;;;;;;;13.13;7.25;;;5.80;99.90;;;;;;5030998;28;20486;-60
2023/12/23 10:32:47;;;;;;;10.43;5.25;;;5.70;99.90;;;;;;5031856;28;20055;-59
2023/12/23 10:35:15;;;;;;;6.82;3.80;;;5.80;99.90;;;;;;5031969;28;20084;-59
2023/12/23 10:37:42;;;;;;;7.07;3.47;;;5.70;99.90;;;;;;5030798;28;20041;-60
2023/12/23 10:40:17;;;;;;;8.75;4.35;;;5.80;99.90;;;;;;5048047;28;20041;-60
2023/12/23 10:42:44;;;;;;;8.30;5.85;;;5.90;99.90;;;;;;5030459;28;20126;-60
2023/12/23 10:45:11;;;;;;;8.60;5.15;;;5.80;99.90;;;;;;5049403;28;20084;-59
2023/12/23 10:47:38;;;;;;;10.07;5.15;;;5.90;99.90;;;;;;5018414;28;20087;-59
2023/12/23 10:50:05;;;;;;;23.92;15.20;;;5.90;99.90;;;;;;5005199;28;20106;-59
2023/12/23 10:52:32;;;;;;;9.52;5.78;;;5.90;99.90;;;;;;5011443;28;20053;-59
2023/12/23 10:55:01;;;;;;;20.70;15.02;;;5.90;99.90;;;;;;5011505;28;20041;-59
2023/12/23 10:57:28;;;;;;;14.73;10.10;;;5.90;99.90;;;;;;5010785;28;20053;-60
2023/12/23 10:59:54;;;;;;;11.77;6.53;;;5.90;99.90;;;;;;5028301;28;20414;-59
2023/12/23 11:02:27;;;;;;;12.98;6.93;;;5.90;99.90;;;;;;4999596;28;20053;-59
2023/12/23 11:04:55;;;;;;;8.65;5.25;;;5.90;99.90;;;;;;5010913;28;20049;-59
2023/12/23 11:07:27;;;;;;;7.82;3.80;;;5.90;99.90;;;;;;5011519;28;20042;-59
2023/12/23 11:09:54;;;;;;;7.05;3.50;;;5.90;99.90;;;;;;5011445;28;20051;-59
2023/12/23 11:12:20;;;;;;;10.52;5.82;;;5.90;99.90;;;;;;5010353;28;20510;-59
2023/12/23 11:14:46;;;;;;;5.75;2.78;;;6.00;99.90;;;;;;5029113;28;20053;-59
2023/12/23 11:17:26;;;;;;;8.90;5.60;;;6.00;99.90;;;;;;5015927;28;20041;-60
2023/12/23 11:19:58;;;;;;;7.07;3.63;;;6.10;99.90;;;;;;5026495;28;20489;-59
2023/12/23 11:22:42;;;;;;;7.88;4.70;;;6.10;99.90;;;;;;5030622;28;20045;-59
2023/12/23 11:25:40;;;;;;;6.25;3.47;;;6.10;99.90;;;;;;5009809;28;20566;-60
2023/12/23 11:28:10;;;;;;;6.15;3.05;;;6.10;99.90;;;;;;5011814;28;20041;-59
2023/12/23 11:30:58;;;;;;;5.50;3.03;;;6.10;99.90;;;;;;5029031;28;20047;-59
2023/12/23 11:33:33;;;;;;;6.10;3.10;;;6.10;99.90;;;;;;5003795;28;20446;-59
2023/12/23 11:36:00;;;;;;;18.33;10.82;;;6.20;99.90;;;;;;5034001;28;20059;-60
2023/12/23 11:38:45;;;;;;;18.95;11.60;;;6.20;99.90;;;;;;5028670;28;20131;-59
2023/12/23 11:41:12;;;;;;;12.10;6.68;;;6.10;99.90;;;;;;5018227;28;20512;-59
2023/12/23 11:43:40;;;;;;;9.60;5.75;;;6.20;99.90;;;;;;5035247;28;20120;-59
2023/12/23 11:46:06;;;;;;;10.73;5.70;;;6.20;99.90;;;;;;5034521;28;20060;-59
2023/12/23 11:48:32;;;;;;;8.68;5.38;;;6.20;99.90;;;;;;5018219;28;20041;-59
2023/12/23 11:50:59;;;;;;;14.00;6.50;;;6.30;99.90;;;;;;5052204;28;20044;-59
2023/12/23 11:53:25;;;;;;;9.95;5.82;;;6.30;99.90;;;;;;5034543;28;20076;-59
2023/12/23 11:55:51;;;;;;;9.20;6.03;;;6.30;99.90;;;;;;5052043;28;20040;-59
2023/12/23 11:58:17;;;;;;;12.88;8.07;;;6.30;99.90;;;;;;5052828;28;20048;-60
2023/12/23 12:00:42;;;;;;;14.32;9.00;;;6.30;99.90;;;;;;5033521;28;20167;-59
2023/12/23 12:03:10;;;;;;;17.15;10.57;;;6.30;99.90;;;;;;5051373;28;20049;-59
2023/12/23 12:05:36;;;;;;;21.58;13.75;;;6.40;99.90;;;;;;5028914;28;20052;-60
2023/12/23 12:08:02;;;;;;;17.42;11.68;;;6.40;99.90;;;;;;5032065;28;20540;-59
2023/12/23 12:10:28;;;;;;;14.88;11.07;;;6.50;99.90;;;;;;5024356;28;20123;-59
2023/12/23 12:12:55;;;;;;;10.63;7.60;;;6.40;99.90;;;;;;5035598;28;20386;-59
2023/12/23 12:15:21;;;;;;;9.95;6.43;;;6.50;99.90;;;;;;5035305;28;20041;-59
2023/12/23 12:17:46;;;;;;;8.70;5.57;;;6.50;99.90;;;;;;5029645;28;20045;-59
2023/12/23 12:20:12;;;;;;;8.55;4.55;;;6.50;99.90;;;;;;5032773;28;20124;-60
2023/12/23 12:22:42;;;;;;;5.78;3.40;;;6.50;99.90;;;;;;5034817;28;20056;-59
2023/12/23 12:25:08;;;;;;;6.30;3.20;;;6.60;99.90;;;;;;5022230;28;20056;-60
2023/12/23 12:27:34;;;;;;;4.55;2.05;;;6.60;99.90;;;;;;5027523;28;20038;-59
2023/12/23 12:30:00;;;;;;;5.28;2.33;;;6.60;99.90;;;;;;5005285;28;20044;-60
2023/12/23 12:32:25;;;;;;;5.30;2.50;;;6.60;99.90;;;;;;5039833;28;20052;-59
2023/12/23 12:35:01;;;;;;;5.00;2.47;;;6.60;99.90;;;;;;5027082;28;20052;-59
2023/12/23 12:37:26;;;;;;;;;;;6.70;99.90;;;;;;5016182;28;20125;-59
2023/12/23 12:39:53;;;;;;;6.43;3.33;;;6.70;99.90;;;;;;5030646;28;20019;-60
2023/12/23 12:42:19;;;;;;;8.07;5.32;;;6.70;99.90;;;;;;5035426;28;20791;-60
2023/12/23 12:44:44;;;;;;;10.10;5.63;;;6.70;99.90;;;;;;5021832;28;20053;-59
2023/12/23 12:47:10;;;;;;;9.98;4.13;;;6.80;99.90;;;;;;5033362;28;20505;-60
2023/12/23 12:49:44;;;;;;;8.13;4.45;;;6.80;99.90;;;;;;5048904;28;20052;-59